Time;durP1;ratioP1;P1;durP2;ratioP2;P2;SDS_P1;SDS_P2;PMS_P1;PMS_P2;Temp;Humidity;BMP_temperature;BMP_pressure;BME280_temperature;BME280_humidity;BME280_pressure;Samples;Min_cycle;Max_cycle;Signal;HPM_P1;HPM_P2
2024/02/15 00:01:04;;;;;;;48.60;26.85;;;12.20;99.90;;;;;;4947302;28;20047;-76
2024/02/15 00:03:31;;;;;;;50.33;26.77;;;12.20;99.90;;;;;;4929616;28;20379;-77
2024/02/15 00:05:58;;;;;;;75.93;32.50;;;12.20;99.90;;;;;;4946827;28;20168;-76
2024/02/15 00:08:26;;;;;;;77.47;32.33;;;12.20;99.90;;;;;;4961980;28;20043;-77
2024/02/15 00:10:53;;;;;;;62.90;30.92;;;12.20;99.90;;;;;;4977055;28;20058;-76
2024/02/15 00:13:19;;;;;;;55.35;29.73;;;12.20;99.90;;;;;;4930745;28;20514;-75
2024/02/15 00:15:50;;;;;;;55.13;30.08;;;12.20;99.90;;;;;;4961133;28;20050;-77
2024/02/15 00:18:16;;;;;;;59.22;29.88;;;12.20;99.90;;;;;;4943017;28;20046;-75
2024/02/15 00:20:44;;;;;;;57.17;27.95;;;12.20;99.90;;;;;;4945312;28;20039;-76
2024/02/15 00:23:10;;;;;;;54.33;26.70;;;12.20;99.90;;;;;;4931432;28;20039;-76
2024/02/15 00:25:37;;;;;;;57.90;28.50;;;12.20;99.90;;;;;;4962001;28;20038;-75
2024/02/15 00:28:03;;;;;;;52.13;26.40;;;12.20;99.90;;;;;;4960570;28;20058;-76
2024/02/15 00:30:31;;;;;;;50.38;25.25;;;12.20;99.90;;;;;;4927849;28;20046;-76
2024/02/15 00:32:57;;;;;;;56.00;26.83;;;12.20;99.90;;;;;;4959870;28;20407;-77
2024/02/15 00:35:24;;;;;;;67.40;31.25;;;12.20;99.90;;;;;;4944630;28;20050;-76
2024/02/15 00:37:51;;;;;;;52.80;26.80;;;12.20;99.90;;;;;;4959971;28;20050;-77
2024/02/15 00:40:17;;;;;;;57.20;27.63;;;12.20;99.90;;;;;;4930165;28;20038;-76
2024/02/15 00:42:44;;;;;;;61.75;28.20;;;12.20;99.90;;;;;;4929886;28;20163;-76
2024/02/15 00:45:11;;;;;;;51.53;25.73;;;12.20;99.90;;;;;;4943579;28;20362;-75
2024/02/15 00:47:38;;;;;;;49.55;25.85;;;12.20;99.90;;;;;;4961258;28;20047;-76
2024/02/15 00:50:05;;;;;;;67.63;32.00;;;12.20;99.90;;;;;;4927358;28;20038;-76
2024/02/15 00:52:31;;;;;;;67.28;31.40;;;12.20;99.90;;;;;;4960637;28;20046;-75
2024/02/15 00:54:58;;;;;;;85.15;38.60;;;12.30;99.90;;;;;;4960037;28;20495;-76
2024/02/15 00:57:24;;;;;;;65.32;30.83;;;12.20;99.90;;;;;;4959046;28;20479;-76
2024/02/15 00:59:51;;;;;;;63.63;29.23;;;12.30;99.90;;;;;;4960282;28;20516;-75
2024/02/15 01:02:18;;;;;;;70.35;32.45;;;12.20;99.90;;;;;;4959765;28;20035;-74
2024/02/15 01:04:46;;;;;;;65.55;30.63;;;12.20;99.90;;;;;;4959414;28;20038;-76
2024/02/15 01:07:12;;;;;;;71.72;34.58;;;12.20;99.90;;;;;;4945248;28;20058;-76
2024/02/15 01:09:38;;;;;;;78.53;35.13;;;12.30;99.90;;;;;;4958126;28;20027;-75
2024/02/15 01:12:05;;;;;;;65.15;31.67;;;12.30;99.90;;;;;;4959341;28;20532;-76
2024/02/15 01:14:31;;;;;;;65.05;31.20;;;12.30;99.90;;;;;;4941065;28;20736;-76
2024/02/15 01:16:58;;;;;;;78.70;37.13;;;12.30;99.90;;;;;;4929211;28;20537;-75
2024/02/15 01:19:24;;;;;;;79.53;36.00;;;12.30;99.90;;;;;;4945440;28;20035;-76
2024/02/15 01:21:51;;;;;;;55.20;30.60;;;12.30;99.90;;;;;;4930307;28;20046;-76
2024/02/15 01:24:17;;;;;;;73.45;34.47;;;12.20;99.90;;;;;;4960028;28;20435;-76
2024/02/15 01:26:43;;;;;;;60.83;32.90;;;12.30;99.90;;;;;;4944556;28;20051;-76
2024/02/15 01:29:12;;;;;;;69.65;32.45;;;12.30;99.90;;;;;;4945332;28;20481;-76
2024/02/15 01:31:38;;;;;;;60.60;31.92;;;12.30;99.90;;;;;;4944421;28;20043;-75
2024/02/15 01:34:05;;;;;;;74.03;34.30;;;12.30;99.90;;;;;;4944172;28;20039;-76
2024/02/15 01:36:31;;;;;;;66.18;30.92;;;12.30;99.90;;;;;;4961964;28;20475;-76
2024/02/15 01:38:57;;;;;;;67.35;31.80;;;12.30;99.90;;;;;;4928593;28;20031;-75
2024/02/15 01:41:23;;;;;;;62.38;31.27;;;12.30;99.90;;;;;;4959767;28;20470;-76
2024/02/15 01:43:50;;;;;;;55.20;29.48;;;12.30;99.90;;;;;;4945446;28;20035;-76
2024/02/15 01:46:17;;;;;;;66.47;32.15;;;12.30;99.90;;;;;;4945752;28;20039;-76
2024/02/15 01:48:44;;;;;;;75.55;36.03;;;12.30;99.90;;;;;;4944493;28;20044;-77
2024/02/15 01:51:14;;;;;;;75.28;33.50;;;12.30;99.90;;;;;;4944827;28;20510;-75
2024/02/15 01:53:42;;;;;;;70.95;32.08;;;12.30;99.90;;;;;;4944815;28;20035;-77
2024/02/15 01:56:10;;;;;;;53.13;27.88;;;12.30;99.90;;;;;;4929072;28;20047;-76
2024/02/15 01:58:40;;;;;;;56.42;28.92;;;12.30;99.90;;;;;;4947268;28;20046;-75
2024/02/15 02:01:06;;;;;;;51.53;29.05;;;12.30;99.90;;;;;;4963219;28;20039;-76
2024/02/15 02:03:33;;;;;;;37.42;23.85;;;12.30;99.90;;;;;;4948340;28;20034;-77
2024/02/15 02:06:00;;;;;;;65.93;30.67;;;12.30;99.90;;;;;;4948834;28;20058;-76
2024/02/15 02:08:27;;;;;;;55.47;29.30;;;12.30;99.90;;;;;;4943728;28;20068;-76
2024/02/15 02:10:53;;;;;;;65.28;33.33;;;12.30;99.90;;;;;;4962827;28;20027;-76
2024/02/15 02:13:20;;;;;;;54.75;27.83;;;12.30;99.90;;;;;;4962584;28;20495;-76
2024/02/15 02:15:46;;;;;;;51.78;27.92;;;12.20;99.90;;;;;;4979060;28;20062;-75
2024/02/15 02:18:13;;;;;;;56.47;26.65;;;12.30;99.90;;;;;;4932182;28;20031;-76
2024/02/15 02:20:39;;;;;;;49.85;26.35;;;12.30;99.90;;;;;;4963517;28;20046;-75
2024/02/15 02:23:16;;;;;;;52.35;26.20;;;12.30;99.90;;;;;;4944272;28;20035;-76
2024/02/15 02:25:43;;;;;;;54.17;27.52;;;12.30;99.90;;;;;;4947919;28;20046;-76
2024/02/15 02:28:10;;;;;;;48.42;24.88;;;12.30;99.90;;;;;;4962113;28;20050;-75
2024/02/15 02:30:37;;;;;;;41.95;22.30;;;12.30;99.90;;;;;;4932420;28;20464;-76
2024/02/15 02:33:07;;;;;;;43.25;23.55;;;12.30;99.90;;;;;;4930993;28;20043;-76
2024/02/15 02:35:33;;;;;;;50.25;23.92;;;12.30;99.90;;;;;;4962404;28;20040;-76
2024/02/15 02:37:59;;;;;;;44.25;21.52;;;12.30;99.90;;;;;;4931414;28;20035;-76
2024/02/15 02:40:26;;;;;;;49.58;25.20;;;12.30;99.90;;;;;;4931588;28;20402;-76
2024/02/15 02:42:58;;;;;;;37.78;20.50;;;12.30;99.90;;;;;;4931911;28;20042;-74
2024/02/15 02:45:25;;;;;;;35.80;19.40;;;12.30;99.90;;;;;;4961977;28;20046;-74
2024/02/15 02:47:52;;;;;;;39.20;20.40;;;12.30;99.90;;;;;;4932613;28;20406;-76
2024/02/15 02:50:19;;;;;;;38.45;19.25;;;12.30;99.90;;;;;;4931714;28;20038;-75
2024/02/15 02:52:48;;;;;;;33.38;17.42;;;12.30;99.90;;;;;;4932860;28;20445;-75
2024/02/15 02:55:14;;;;;;;37.60;19.52;;;12.30;99.90;;;;;;4964078;28;20490;-75
2024/02/15 02:57:42;;;;;;;39.95;21.08;;;12.30;99.90;;;;;;4948768;28;20523;-75
2024/02/15 03:00:12;;;;;;;38.67;19.35;;;12.20;99.90;;;;;;4946697;28;20054;-74
2024/02/15 03:02:39;;;;;;;35.95;19.27;;;12.20;99.90;;;;;;4945526;28;20509;-75
2024/02/15 03:05:08;;;;;;;35.63;19.50;;;12.20;99.90;;;;;;4961708;28;20035;-75
2024/02/15 03:07:35;;;;;;;41.70;20.63;;;12.20;99.90;;;;;;4962125;28;20066;-76
2024/02/15 03:10:08;;;;;;;38.25;20.67;;;12.20;99.90;;;;;;4944875;28;20512;-76
2024/02/15 03:12:37;;;;;;;;;;;12.20;99.90;;;;;;4944604;28;20050;-76
2024/02/15 03:15:07;;;;;;;43.03;20.92;;;12.20;99.90;;;;;;4958487;28;19921;-74
2024/02/15 03:17:34;;;;;;;40.50;20.70;;;12.20;99.90;;;;;;4977477;28;20039;-76
2024/02/15 03:20:00;;;;;;;38.70;21.10;;;12.10;99.90;;;;;;4961307;28;20031;-75
2024/02/15 03:22:29;;;;;;;46.05;24.85;;;12.10;99.90;;;;;;4944083;28;20415;-75
2024/02/15 03:24:55;;;;;;;44.33;23.42;;;12.10;99.90;;;;;;4947451;28;20251;-75
2024/02/15 03:27:23;;;;;;;40.40;21.48;;;12.10;99.90;;;;;;4932041;28;20035;-75
2024/02/15 03:29:49;;;;;;;35.00;18.65;;;12.10;99.90;;;;;;4959772;28;20046;-76
2024/02/15 03:32:16;;;;;;;38.42;21.73;;;12.00;99.90;;;;;;4962524;28;20039;-76
2024/02/15 03:34:43;;;;;;;37.85;21.17;;;12.10;99.90;;;;;;4961593;28;20035;-75
2024/02/15 03:37:09;;;;;;;33.35;17.90;;;12.10;99.90;;;;;;4931307;28;20050;-76
2024/02/15 03:39:37;;;;;;;30.30;17.23;;;12.10;99.90;;;;;;4931186;28;20572;-75
2024/02/15 03:42:04;;;;;;;41.92;21.25;;;12.00;99.90;;;;;;4946114;28;20043;-76
2024/02/15 03:44:31;;;;;;;44.03;21.88;;;12.00;99.90;;;;;;4962359;28;20046;-75
2024/02/15 03:46:58;;;;;;;43.47;21.98;;;12.00;99.90;;;;;;4962967;28;20519;-75
2024/02/15 03:49:25;;;;;;;36.33;19.65;;;11.90;99.90;;;;;;4947378;28;20047;-75
2024/02/15 03:51:51;;;;;;;38.30;19.63;;;11.90;99.90;;;;;;4946341;28;21230;-76
2024/02/15 03:54:17;;;;;;;37.17;19.65;;;11.90;99.90;;;;;;4930642;28;20417;-76
2024/02/15 03:56:51;;;;;;;31.00;17.88;;;11.90;99.90;;;;;;4943664;28;20039;-76
2024/02/15 03:59:26;;;;;;;33.42;18.50;;;11.90;99.90;;;;;;4930503;28;20031;-76
2024/02/15 04:01:54;;;;;;;40.50;19.88;;;11.90;99.90;;;;;;4941870;28;20493;-76
2024/02/15 04:04:21;;;;;;;46.78;24.15;;;12.00;99.90;;;;;;4979494;28;20065;-76
2024/02/15 04:06:48;;;;;;;34.65;19.05;;;11.90;99.90;;;;;;4941790;28;20031;-76
2024/02/15 04:09:17;;;;;;;34.25;17.08;;;11.90;99.90;;;;;;4929930;29;20044;-76
2024/02/15 04:11:46;;;;;;;32.33;18.65;;;11.90;99.90;;;;;;4930461;28;20405;-76
2024/02/15 04:14:13;;;;;;;34.60;19.70;;;11.90;99.90;;;;;;4976752;28;20035;-75
2024/02/15 04:16:40;;;;;;;24.52;14.82;;;11.90;99.90;;;;;;4977860;28;20446;-76
2024/02/15 04:19:06;;;;;;;28.02;15.23;;;11.80;99.90;;;;;;4945094;28;20031;-76
2024/02/15 04:21:33;;;;;;;33.08;17.60;;;11.80;99.90;;;;;;4962842;28;20031;-76
2024/02/15 04:23:59;;;;;;;29.27;15.75;;;11.80;99.90;;;;;;4947351;28;20042;-75
2024/02/15 04:26:26;;;;;;;29.20;15.50;;;11.70;99.90;;;;;;4948891;28;20039;-76
2024/02/15 04:28:53;;;;;;;35.85;17.63;;;11.70;99.90;;;;;;4947992;28;20508;-76
2024/02/15 04:31:26;;;;;;;30.33;15.77;;;11.70;99.90;;;;;;4979711;28;20039;-76
2024/02/15 04:33:55;;;;;;;;;;;11.70;99.90;;;;;;4947387;28;20050;-76
2024/02/15 04:36:26;;;;;;;28.88;15.15;;;11.70;99.90;;;;;;4948453;28;19919;-76
2024/02/15 04:38:52;;;;;;;24.92;14.13;;;11.70;99.90;;;;;;4946397;28;20347;-75
2024/02/15 04:41:19;;;;;;;19.75;12.30;;;11.70;99.90;;;;;;4979421;28;20399;-75
2024/02/15 04:43:47;;;;;;;26.85;13.95;;;11.70;99.90;;;;;;4962002;28;20039;-75
2024/02/15 04:46:14;;;;;;;23.45;13.20;;;11.70;99.90;;;;;;4947100;28;20043;-77
2024/02/15 04:48:43;;;;;;;19.58;11.57;;;11.70;99.90;;;;;;4962651;28;20050;-75
2024/02/15 04:51:13;;;;;;;26.08;12.27;;;11.70;99.90;;;;;;4960531;28;20027;-75
2024/02/15 04:53:41;;;;;;;26.13;14.05;;;11.70;99.90;;;;;;4962577;28;20039;-76
2024/02/15 04:56:13;;;;;;;25.90;12.48;;;11.80;99.90;;;;;;4945295;28;20398;-76
2024/02/15 04:58:47;;;;;;;29.17;14.95;;;11.80;99.90;;;;;;4976844;28;20042;-76
2024/02/15 05:01:15;;;;;;;21.17;13.15;;;11.80;99.90;;;;;;4961062;28;20039;-76
2024/02/15 05:03:42;;;;;;;22.10;12.23;;;11.80;99.90;;;;;;4945052;28;20047;-76
2024/02/15 05:06:09;;;;;;;19.77;12.05;;;11.80;99.90;;;;;;4962948;28;20047;-75
2024/02/15 05:08:38;;;;;;;24.42;12.02;;;11.80;99.90;;;;;;4931301;28;20991;-75
2024/02/15 05:11:06;;;;;;;20.95;11.48;;;11.80;99.90;;;;;;4960773;28;20031;-75
2024/02/15 05:13:33;;;;;;;27.48;14.82;;;11.80;99.90;;;;;;4962863;28;20475;-75
2024/02/15 05:15:59;;;;;;;25.25;12.60;;;11.90;99.90;;;;;;4961773;28;20031;-76
2024/02/15 05:18:25;;;;;;;29.90;15.52;;;11.80;99.90;;;;;;4930066;28;20039;-75
2024/02/15 05:20:52;;;;;;;26.90;13.65;;;11.90;99.90;;;;;;4931678;28;20039;-76
2024/02/15 05:23:18;;;;;;;27.50;14.27;;;11.90;99.90;;;;;;4963061;28;20386;-77
2024/02/15 05:25:45;;;;;;;33.75;16.23;;;11.90;99.90;;;;;;4944248;28;20035;-77
2024/02/15 05:28:12;;;;;;;23.92;13.38;;;11.90;99.90;;;;;;4951048;28;20145;-77
2024/02/15 05:30:39;;;;;;;25.35;14.13;;;11.90;99.90;;;;;;4981894;28;20395;-77
2024/02/15 05:33:10;;;;;;;24.48;12.43;;;11.90;99.90;;;;;;4933139;28;20038;-76
2024/02/15 05:35:39;;;;;;;19.63;11.68;;;11.90;99.90;;;;;;4962231;28;20054;-76
2024/02/15 05:38:06;;;;;;;22.88;12.38;;;11.90;99.90;;;;;;4931441;28;20414;-76
2024/02/15 05:40:32;;;;;;;20.83;11.52;;;11.90;99.90;;;;;;4930559;28;20466;-77
2024/02/15 05:43:01;;;;;;;24.90;12.95;;;11.90;99.90;;;;;;4931355;28;20032;-77
2024/02/15 05:45:32;;;;;;;19.92;11.85;;;11.90;99.90;;;;;;4978201;28;20035;-76
2024/02/15 05:47:59;;;;;;;14.02;9.73;;;11.90;99.90;;;;;;4961625;28;20051;-76
2024/02/15 05:50:27;;;;;;;20.30;11.63;;;11.90;99.90;;;;;;4942478;28;20039;-76
2024/02/15 05:52:54;;;;;;;22.65;12.15;;;11.90;99.90;;;;;;4962530;28;20582;-75
2024/02/15 05:55:21;;;;;;;19.77;11.23;;;11.90;99.90;;;;;;4943238;28;20059;-77
2024/02/15 05:57:47;;;;;;;24.83;13.25;;;11.90;99.90;;;;;;4960799;28;20039;-77
2024/02/15 06:00:15;;;;;;;19.02;10.30;;;11.90;99.90;;;;;;4944237;28;20039;-77
2024/02/15 06:02:41;;;;;;;34.38;16.48;;;11.90;99.90;;;;;;4961688;28;20435;-77
2024/02/15 06:05:10;;;;;;;17.08;9.45;;;11.90;99.90;;;;;;4959686;28;20043;-77
2024/02/15 06:07:36;;;;;;;41.88;15.90;;;11.90;99.90;;;;;;4977605;28;20035;-77
2024/02/15 06:10:04;;;;;;;19.38;12.25;;;11.90;99.90;;;;;;4943490;28;20042;-76
2024/02/15 06:12:30;;;;;;;17.60;10.93;;;11.90;99.90;;;;;;4947755;28;20083;-77
2024/02/15 06:14:56;;;;;;;20.45;10.98;;;11.90;99.90;;;;;;4960177;28;20051;-77
2024/02/15 06:17:24;;;;;;;19.30;9.80;;;11.90;99.90;;;;;;4961318;28;20324;-75
2024/02/15 06:19:50;;;;;;;14.50;8.80;;;11.90;99.90;;;;;;4960501;28;20080;-77
2024/02/15 06:22:16;;;;;;;20.08;11.98;;;11.90;99.90;;;;;;4931606;28;20046;-77
2024/02/15 06:24:43;;;;;;;25.45;13.57;;;11.90;99.90;;;;;;4947486;28;20106;-77
2024/02/15 06:27:09;;;;;;;24.60;12.45;;;11.80;99.90;;;;;;4962006;28;20425;-77
2024/02/15 06:40:36;;;;;;;21.52;11.30;;;11.90;99.90;;;;;;4960140;28;20069;-78
2024/02/15 06:43:03;;;;;;;20.25;11.68;;;11.90;99.90;;;;;;4948041;28;20058;-77
2024/02/15 06:45:31;;;;;;;23.17;12.18;;;11.90;99.90;;;;;;4964335;28;20382;-77
2024/02/15 06:47:58;;;;;;;32.92;17.60;;;11.90;99.90;;;;;;4934199;28;20035;-77
2024/02/15 06:50:26;;;;;;;23.92;13.57;;;11.90;99.90;;;;;;4931678;29;20548;-78
2024/02/15 06:52:53;;;;;;;15.23;10.18;;;11.90;99.90;;;;;;4950233;28;20124;-76
2024/02/15 06:55:21;;;;;;;25.80;13.77;;;11.90;99.90;;;;;;4963172;28;20043;-76
2024/02/15 06:57:48;;;;;;;16.67;11.10;;;11.90;99.90;;;;;;4964110;28;20042;-75
2024/02/15 07:00:15;;;;;;;19.80;9.85;;;11.90;99.90;;;;;;4962713;28;20036;-77
2024/02/15 07:02:44;;;;;;;14.88;10.63;;;11.90;99.90;;;;;;4964471;28;20054;-77
2024/02/15 07:05:11;;;;;;;15.88;11.20;;;11.90;99.90;;;;;;4964856;28;20066;-76
2024/02/15 07:07:38;;;;;;;26.58;15.20;;;11.90;99.90;;;;;;4947255;28;20498;-76
2024/02/15 07:10:06;;;;;;;19.45;11.45;;;11.90;99.90;;;;;;4946095;28;20414;-77
2024/02/15 07:12:32;;;;;;;21.48;13.85;;;11.90;99.90;;;;;;4933017;28;20098;-76
2024/02/15 07:15:01;;;;;;;23.08;12.98;;;11.90;99.90;;;;;;4963618;28;20581;-76
2024/02/15 07:17:28;;;;;;;25.42;15.60;;;11.90;99.90;;;;;;4949505;28;20047;-76
2024/02/15 07:19:55;;;;;;;18.02;12.18;;;11.90;99.90;;;;;;4965101;28;20505;-76
2024/02/15 07:22:22;;;;;;;13.10;10.50;;;12.00;99.90;;;;;;4937648;28;20058;-77
2024/02/15 07:24:48;;;;;;;16.67;10.63;;;12.00;99.90;;;;;;4967010;28;20034;-77
2024/02/15 07:27:14;;;;;;;17.02;10.23;;;12.00;99.90;;;;;;4932660;28;20047;-76
2024/02/15 07:29:41;;;;;;;20.70;12.00;;;12.00;99.90;;;;;;4933854;28;20043;-76
2024/02/15 07:32:08;;;;;;;15.57;11.77;;;12.00;99.90;;;;;;4963631;28;20491;-77
2024/02/15 07:34:34;;;;;;;18.10;12.55;;;12.00;99.90;;;;;;4963657;28;20039;-76
2024/02/15 07:37:02;;;;;;;16.83;10.73;;;12.00;99.90;;;;;;4963733;28;20039;-76
2024/02/15 07:39:29;;;;;;;27.10;15.70;;;12.10;99.90;;;;;;4931980;28;20039;-77
2024/02/15 07:41:56;;;;;;;32.22;19.63;;;12.10;99.90;;;;;;4948287;28;20439;-77
2024/02/15 07:44:23;;;;;;;28.48;17.63;;;12.10;99.90;;;;;;4965171;28;20034;-76
2024/02/15 07:46:50;;;;;;;20.98;14.95;;;12.10;99.90;;;;;;4963149;28;20054;-77
2024/02/15 07:49:19;;;;;;;18.25;11.70;;;12.10;99.90;;;;;;4929509;28;20031;-77
2024/02/15 07:51:52;;;;;;;19.15;13.07;;;12.10;99.90;;;;;;4944763;28;20062;-78
2024/02/15 07:54:20;;;;;;;18.48;12.63;;;12.10;99.90;;;;;;4946293;28;20031;-77
2024/02/15 07:56:50;;;;;;;23.98;15.18;;;12.10;99.90;;;;;;4963736;28;20046;-77
2024/02/15 07:59:16;;;;;;;17.48;12.57;;;12.10;99.90;;;;;;4945789;28;20491;-76
2024/02/15 08:01:45;;;;;;;16.88;12.18;;;12.10;99.90;;;;;;4963550;28;20039;-78
2024/02/15 08:04:12;;;;;;;22.98;13.75;;;12.10;99.90;;;;;;4931266;28;20046;-79
2024/02/15 08:06:38;;;;;;;24.83;15.93;;;12.10;99.90;;;;;;4961244;28;20046;-76
2024/02/15 08:09:04;;;;;;;15.77;12.23;;;12.10;99.90;;;;;;4946896;28;20039;-81
2024/02/15 08:11:31;;;;;;;24.80;15.32;;;12.10;99.90;;;;;;4963402;28;20395;-81
2024/02/15 08:13:59;;;;;;;20.08;13.90;;;12.10;99.90;;;;;;4946503;28;20478;-81
2024/02/15 08:16:28;;;;;;;31.73;17.23;;;12.10;99.90;;;;;;4931594;28;20398;-79
2024/02/15 08:18:55;;;;;;;20.58;13.70;;;12.10;99.90;;;;;;4946835;28;20039;-84
2024/02/15 08:21:27;;;;;;;19.98;12.90;;;12.10;99.90;;;;;;4964504;28;20406;-82
2024/02/15 08:23:53;;;;;;;22.02;14.75;;;12.10;99.90;;;;;;4964010;28;20031;-82
2024/02/15 08:26:19;;;;;;;18.85;12.93;;;12.10;99.90;;;;;;4945490;28;20039;-82
2024/02/15 08:28:46;;;;;;;20.52;14.07;;;12.10;99.90;;;;;;4961625;28;20042;-80
2024/02/15 08:31:15;;;;;;;18.83;12.05;;;12.10;99.90;;;;;;4944617;28;20031;-82
2024/02/15 08:33:43;;;;;;;10.50;9.20;;;12.20;99.90;;;;;;4962160;28;20042;-82
2024/02/15 08:36:10;;;;;;;18.23;11.57;;;12.20;99.90;;;;;;4961648;28;20044;-83
2024/02/15 08:38:39;;;;;;;16.83;10.48;;;12.20;99.90;;;;;;4931558;28;20043;-82
2024/02/15 08:41:07;;;;;;;14.27;9.10;;;12.20;99.90;;;;;;4913284;29;20047;-81
2024/02/15 08:43:33;;;;;;;13.95;9.95;;;12.30;99.90;;;;;;4960758;28;20024;-76
2024/02/15 08:46:00;;;;;;;18.95;11.80;;;12.20;99.90;;;;;;4943781;28;20035;-84
2024/02/15 08:48:27;;;;;;;16.33;11.88;;;12.30;99.90;;;;;;4961870;28;20050;-86
2024/02/15 08:50:53;;;;;;;14.73;10.10;;;12.20;99.90;;;;;;4960508;28;20065;-76
2024/02/15 08:53:21;;;;;;;12.15;8.90;;;12.30;99.90;;;;;;4978224;28;20046;-83
2024/02/15 08:55:48;;;;;;;12.30;7.88;;;12.30;99.90;;;;;;4928725;28;20534;-78
2024/02/15 08:58:14;;;;;;;11.90;7.32;;;12.30;99.90;;;;;;4931576;28;20028;-81
2024/02/15 09:00:45;;;;;;;11.23;7.32;;;12.30;99.90;;;;;;4930991;28;20470;-81
2024/02/15 09:03:14;;;;;;;14.20;9.02;;;12.30;99.90;;;;;;4930418;28;20023;-76
2024/02/15 09:05:40;;;;;;;14.68;8.93;;;12.40;99.90;;;;;;4962631;28;20483;-84
2024/02/15 09:08:07;;;;;;;14.18;10.80;;;12.40;99.90;;;;;;4932987;28;20069;-85
2024/02/15 09:10:36;;;;;;;12.25;8.95;;;12.30;99.90;;;;;;4963449;28;20039;-81
2024/02/15 09:13:02;;;;;;;13.52;10.18;;;12.30;99.90;;;;;;4932531;28;20058;-83
2024/02/15 09:15:30;;;;;;;13.98;10.68;;;12.30;99.90;;;;;;4935682;28;20048;-90
2024/02/15 09:17:57;;;;;;;14.95;10.48;;;12.30;99.90;;;;;;4983191;28;20491;-83
2024/02/15 09:20:28;;;;;;;13.30;10.82;;;12.30;99.90;;;;;;4931049;28;20066;-79
2024/02/15 09:22:55;;;;;;;23.42;13.45;;;12.30;99.90;;;;;;4933383;28;20785;-82
2024/02/15 09:25:26;;;;;;;13.80;8.90;;;12.30;99.90;;;;;;4966974;28;20039;-81
2024/02/15 09:27:53;;;;;;;14.95;9.65;;;12.40;99.90;;;;;;4933640;28;20039;-78
2024/02/15 09:30:20;;;;;;;12.25;8.15;;;12.40;99.90;;;;;;4960851;28;20064;-81
2024/02/15 09:32:46;;;;;;;16.92;9.90;;;12.40;99.90;;;;;;4945288;28;20054;-81
2024/02/15 09:35:13;;;;;;;13.95;9.88;;;12.40;99.90;;;;;;4930241;28;20406;-83
2024/02/15 09:37:50;;;;;;;15.10;10.35;;;12.40;99.90;;;;;;4961764;28;20036;-77
2024/02/15 09:40:18;;;;;;;13.38;10.15;;;12.40;99.90;;;;;;4914450;28;20046;-80
2024/02/15 09:42:44;;;;;;;14.93;9.98;;;12.40;99.90;;;;;;4962934;28;20039;-84
2024/02/15 09:45:13;;;;;;;18.48;11.45;;;12.40;99.90;;;;;;4932026;28;20058;-85
2024/02/15 09:47:40;;;;;;;21.17;12.20;;;12.40;99.90;;;;;;4949847;28;20905;-83
2024/02/15 09:50:07;;;;;;;15.15;10.50;;;12.40;99.90;;;;;;4933439;28;20039;-85
2024/02/15 09:52:37;;;;;;;15.23;9.95;;;12.40;99.90;;;;;;4946294;28;20035;-85
2024/02/15 09:55:04;;;;;;;14.23;9.55;;;12.40;99.90;;;;;;4945705;28;20204;-87
2024/02/15 09:57:35;;;;;;;15.73;9.82;;;12.40;99.90;;;;;;4962632;28;20031;-82
2024/02/15 10:00:03;;;;;;;13.75;9.10;;;12.40;99.90;;;;;;4948823;28;20043;-87
2024/02/15 10:02:32;;;;;;;10.27;6.90;;;12.40;99.90;;;;;;4978838;28;20035;-85
2024/02/15 10:04:58;;;;;;;13.82;8.88;;;12.40;99.90;;;;;;4933407;28;20345;-81
2024/02/15 10:07:26;;;;;;;13.23;7.75;;;12.50;99.90;;;;;;4964717;28;20047;-86
2024/02/15 10:09:54;;;;;;;15.23;8.65;;;12.50;99.90;;;;;;4964798;28;20050;-86
2024/02/15 10:12:21;;;;;;;14.80;9.55;;;12.50;99.90;;;;;;4964184;28;20055;-82
2024/02/15 10:14:52;;;;;;;16.98;9.95;;;12.50;99.90;;;;;;4947311;28;20051;-81
2024/02/15 10:17:19;;;;;;;10.70;6.93;;;12.50;99.90;;;;;;4964416;28;20120;-81
2024/02/15 10:20:03;;;;;;;19.20;10.15;;;12.40;99.90;;;;;;4966397;28;20044;-82
2024/02/15 10:22:29;;;;;;;14.18;8.27;;;12.40;99.90;;;;;;4935602;28;20486;-80
2024/02/15 10:25:14;;;;;;;14.75;7.55;;;12.40;99.90;;;;;;4965677;28;20352;-80
2024/02/15 10:27:41;;;;;;;12.88;6.70;;;12.40;99.90;;;;;;4951676;28;20556;-81
2024/02/15 10:30:20;;;;;;;15.18;8.75;;;12.40;99.90;;;;;;4950426;28;20054;-80
2024/02/15 10:32:48;;;;;;;18.63;10.68;;;12.40;99.90;;;;;;4949755;28;20035;-76
2024/02/15 10:35:21;;;;;;;18.67;10.90;;;12.40;99.90;;;;;;4964826;28;20046;-79
2024/02/15 10:37:51;;;;;;;19.55;11.07;;;12.40;99.90;;;;;;4917022;28;20043;-77
2024/02/15 10:40:18;;;;;;;16.65;10.15;;;12.40;99.90;;;;;;4966238;28;20051;-79
2024/02/15 10:42:48;;;;;;;15.35;9.82;;;12.50;99.90;;;;;;4935701;28;20044;-78
2024/02/15 10:45:17;;;;;;;14.85;9.20;;;12.40;99.90;;;;;;4963168;28;20061;-78
2024/02/15 10:47:50;;;;;;;12.38;8.35;;;12.50;99.90;;;;;;4934689;28;21235;-76
2024/02/15 10:50:16;;;;;;;14.57;8.00;;;12.40;99.90;;;;;;4950370;28;20035;-77
2024/02/15 10:52:57;;;;;;;10.73;7.05;;;12.50;99.90;;;;;;4966131;28;20043;-78
2024/02/15 10:55:40;;;;;;;18.85;10.18;;;12.60;99.90;;;;;;4963810;28;20066;-77
2024/02/15 10:58:06;;;;;;;;;;;12.60;99.90;;;;;;4947052;28;21066;-75
2024/02/15 11:00:37;;;;;;;18.90;10.43;;;12.60;99.90;;;;;;4963194;28;19941;-78
2024/02/15 11:03:07;;;;;;;22.77;13.95;;;12.60;99.90;;;;;;4949626;28;20047;-77
2024/02/15 11:05:37;;;;;;;23.38;13.57;;;12.60;99.90;;;;;;4934769;28;20541;-80
2024/02/15 11:08:06;;;;;;;18.42;11.95;;;12.60;99.90;;;;;;4949720;28;20043;-75
2024/02/15 11:10:34;;;;;;;12.52;8.43;;;12.70;99.90;;;;;;4979762;28;20039;-78
2024/02/15 11:13:01;;;;;;;14.52;8.25;;;12.60;99.90;;;;;;4964003;28;20058;-79
2024/02/15 11:15:48;;;;;;;19.35;11.40;;;12.70;99.90;;;;;;4948408;28;20027;-78
2024/02/15 11:18:51;;;;;;;13.93;9.07;;;12.70;99.90;;;;;;4980582;28;20042;-78
2024/02/15 11:21:38;;;;;;;22.80;14.25;;;12.80;99.90;;;;;;4946561;28;20074;-78
2024/02/15 11:24:25;;;;;;;24.40;14.20;;;12.80;99.90;;;;;;4964026;28;20035;-75
2024/02/15 11:26:51;;;;;;;18.77;11.98;;;12.90;99.90;;;;;;4919528;29;20055;-77
2024/02/15 11:29:56;;;;;;;16.50;10.63;;;12.90;99.90;;;;;;4962440;28;20426;-79
2024/02/15 11:32:55;;;;;;;14.90;10.60;;;13.00;99.90;;;;;;4963649;28;20721;-77
2024/02/15 11:35:23;;;;;;;18.23;11.02;;;13.10;99.90;;;;;;4949172;28;20054;-74
2024/02/15 11:37:58;;;;;;;20.45;12.10;;;13.10;99.90;;;;;;4947909;28;20039;-79
2024/02/15 11:40:29;;;;;;;20.00;12.30;;;13.20;99.90;;;;;;4978453;28;20043;-75
2024/02/15 11:42:59;;;;;;;20.08;12.60;;;13.20;99.90;;;;;;4948613;28;20050;-76
2024/02/15 11:45:51;;;;;;;16.45;10.38;;;13.20;99.90;;;;;;4947907;28;20054;-78
2024/02/15 11:48:14;;;;;;;15.98;9.40;;;13.20;99.90;;;;;;4948555;28;20054;-77
2024/02/15 11:50:41;;;;;;;19.92;12.63;;;13.30;99.90;;;;;;4933155;28;20483;-78
2024/02/15 11:53:11;;;;;;;16.73;10.35;;;13.30;99.90;;;;;;4963889;28;20402;-74
2024/02/15 11:55:38;;;;;;;20.52;11.32;;;13.30;99.90;;;;;;4933210;28;20058;-74
2024/02/15 12:20:11;;;;;;;14.15;9.70;;;14.10;99.90;;;;;;4943066;28;20031;-78
2024/02/15 12:22:46;;;;;;;20.73;11.88;;;14.20;99.90;;;;;;4965468;28;20583;-75
2024/02/15 12:25:20;;;;;;;21.00;12.77;;;14.30;99.90;;;;;;4965174;28;20039;-77
2024/02/15 12:27:53;;;;;;;16.10;11.20;;;14.40;99.90;;;;;;4965819;28;20040;-81
2024/02/15 12:30:22;;;;;;;;;;;14.50;99.90;;;;;;4950120;28;20059;-73
2024/02/15 12:32:52;;;;;;;26.48;16.80;;;14.50;99.90;;;;;;4965421;28;20568;-72
2024/02/15 12:35:25;;;;;;;21.80;15.93;;;14.50;99.90;;;;;;4965740;28;20043;-75
2024/02/15 12:38:08;;;;;;;17.27;13.07;;;14.60;99.90;;;;;;4935103;28;20035;-77
2024/02/15 12:40:36;;;;;;;25.48;16.63;;;14.60;99.90;;;;;;4947540;28;20039;-75
2024/02/15 12:43:05;;;;;;;22.35;14.68;;;14.60;99.90;;;;;;4947541;28;20043;-75
2024/02/15 12:45:36;;;;;;;21.15;15.07;;;14.60;99.90;;;;;;4983100;28;20082;-76
2024/02/15 12:48:07;;;;;;;18.77;12.70;;;14.70;99.90;;;;;;4964744;28;20050;-75
2024/02/15 12:50:34;;;;;;;17.83;12.10;;;14.70;99.90;;;;;;4934655;28;20031;-75
2024/02/15 12:53:05;;;;;;;15.75;11.13;;;14.80;99.90;;;;;;4965757;28;20036;-76
2024/02/15 12:55:36;;;;;;;18.35;10.38;;;14.80;99.90;;;;;;4964697;28;20041;-75
2024/02/15 12:58:08;;;;;;;16.75;9.63;;;14.80;99.90;;;;;;4944986;28;20047;-75
2024/02/15 13:00:41;;;;;;;13.75;9.80;;;14.80;99.90;;;;;;4965618;28;20486;-74
2024/02/15 13:03:09;;;;;;;16.25;10.85;;;14.90;99.90;;;;;;4980993;28;20058;-75
2024/02/15 13:05:36;;;;;;;13.52;9.65;;;14.90;99.90;;;;;;4936481;28;20502;-75
2024/02/15 13:08:05;;;;;;;14.88;9.88;;;15.10;99.90;;;;;;4929876;28;20055;-73
2024/02/15 13:10:32;;;;;;;15.55;9.38;;;15.10;99.90;;;;;;4946151;28;20038;-76